sensor_id;sensor_type;location;lat;lon;timestamp;P1;durP1;ratioP1;P2;durP2;ratioP2
9485;SDS011;4781;48.776;9.200;2024-01-30T00:01:25;5.45;;;2.85;;
9485;SDS011;4781;48.776;9.200;2024-01-30T00:03:53;5.58;;;2.80;;
9485;SDS011;4781;48.776;9.200;2024-01-30T00:06:22;8.60;;;2.70;;
9485;SDS011;4781;48.776;9.200;2024-01-30T00:08:51;6.85;;;2.65;;
9485;SDS011;4781;48.776;9.200;2024-01-30T00:11:19;4.65;;;2.42;;
9485;SDS011;4781;48.776;9.200;2024-01-30T00:13:47;4.97;;;2.33;;
9485;SDS011;4781;48.776;9.200;2024-01-30T00:16:22;6.30;;;2.70;;
9485;SDS011;4781;48.776;9.200;2024-01-30T00:18:52;4.95;;;2.60;;
9485;SDS011;4781;48.776;9.200;2024-01-30T00:21:20;5.55;;;2.75;;
9485;SDS011;4781;48.776;9.200;2024-01-30T00:23:49;6.58;;;3.37;;
9485;SDS011;4781;48.776;9.200;2024-01-30T00:26:18;5.87;;;2.52;;
9485;SDS011;4781;48.776;9.200;2024-01-30T00:28:46;5.05;;;2.67;;
9485;SDS011;4781;48.776;9.200;2024-01-30T00:31:15;6.55;;;2.90;;
9485;SDS011;4781;48.776;9.200;2024-01-30T00:33:43;5.70;;;2.80;;
9485;SDS011;4781;48.776;9.200;2024-01-30T00:36:12;7.83;;;3.02;;
9485;SDS011;4781;48.776;9.200;2024-01-30T00:38:41;4.65;;;2.60;;
9485;SDS011;4781;48.776;9.200;2024-01-30T00:41:09;6.75;;;2.90;;
9485;SDS011;4781;48.776;9.200;2024-01-30T00:43:38;6.33;;;2.65;;
9485;SDS011;4781;48.776;9.200;2024-01-30T00:46:06;7.22;;;3.12;;
9485;SDS011;4781;48.776;9.200;2024-01-30T00:48:34;7.20;;;2.50;;
9485;SDS011;4781;48.776;9.200;2024-01-30T00:51:03;5.87;;;2.37;;
9485;SDS011;4781;48.776;9.200;2024-01-30T00:53:31;5.03;;;2.30;;
9485;SDS011;4781;48.776;9.200;2024-01-30T00:56:00;5.47;;;2.72;;
9485;SDS011;4781;48.776;9.200;2024-01-30T00:58:29;5.72;;;2.70;;
9485;SDS011;4781;48.776;9.200;2024-01-30T01:00:57;6.23;;;2.87;;
9485;SDS011;4781;48.776;9.200;2024-01-30T01:03:26;4.50;;;2.37;;
9485;SDS011;4781;48.776;9.200;2024-01-30T01:05:54;6.00;;;2.45;;
9485;SDS011;4781;48.776;9.200;2024-01-30T01:08:22;7.53;;;2.72;;
9485;SDS011;4781;48.776;9.200;2024-01-30T01:10:51;4.87;;;2.62;;
9485;SDS011;4781;48.776;9.200;2024-01-30T01:13:19;6.92;;;2.83;;
9485;SDS011;4781;48.776;9.200;2024-01-30T01:15:48;6.35;;;2.42;;
9485;SDS011;4781;48.776;9.200;2024-01-30T01:18:25;5.20;;;2.90;;
9485;SDS011;4781;48.776;9.200;2024-01-30T01:20:53;5.92;;;2.42;;
9485;SDS011;4781;48.776;9.200;2024-01-30T01:23:22;4.42;;;2.37;;
9485;SDS011;4781;48.776;9.200;2024-01-30T01:25:50;5.33;;;2.65;;
9485;SDS011;4781;48.776;9.200;2024-01-30T01:28:19;4.47;;;2.40;;
9485;SDS011;4781;48.776;9.200;2024-01-30T01:30:48;6.03;;;2.83;;
9485;SDS011;4781;48.776;9.200;2024-01-30T01:33:17;4.95;;;2.25;;
9485;SDS011;4781;48.776;9.200;2024-01-30T01:35:45;4.47;;;2.47;;
9485;SDS011;4781;48.776;9.200;2024-01-30T01:38:14;4.40;;;2.58;;
9485;SDS011;4781;48.776;9.200;2024-01-30T01:40:42;6.60;;;2.40;;
9485;SDS011;4781;48.776;9.200;2024-01-30T01:43:11;4.72;;;2.30;;
9485;SDS011;4781;48.776;9.200;2024-01-30T01:45:40;6.80;;;2.62;;
9485;SDS011;4781;48.776;9.200;2024-01-30T01:48:08;5.50;;;2.58;;
9485;SDS011;4781;48.776;9.200;2024-01-30T01:50:37;5.67;;;2.70;;
9485;SDS011;4781;48.776;9.200;2024-01-30T01:53:06;5.05;;;2.67;;
9485;SDS011;4781;48.776;9.200;2024-01-30T01:55:36;4.33;;;2.30;;
9485;SDS011;4781;48.776;9.200;2024-01-30T01:58:05;4.28;;;2.50;;
9485;SDS011;4781;48.776;9.200;2024-01-30T02:00:35;5.83;;;2.30;;
9485;SDS011;4781;48.776;9.200;2024-01-30T02:03:05;6.10;;;3.02;;
9485;SDS011;4781;48.776;9.200;2024-01-30T02:05:39;6.92;;;2.80;;
9485;SDS011;4781;48.776;9.200;2024-01-30T02:08:08;4.60;;;2.40;;
9485;SDS011;4781;48.776;9.200;2024-01-30T02:10:37;5.05;;;2.72;;
9485;SDS011;4781;48.776;9.200;2024-01-30T02:13:05;4.35;;;2.10;;
9485;SDS011;4781;48.776;9.200;2024-01-30T02:15:34;4.25;;;2.17;;
9485;SDS011;4781;48.776;9.200;2024-01-30T02:18:02;4.53;;;2.35;;
9485;SDS011;4781;48.776;9.200;2024-01-30T02:20:30;4.97;;;2.72;;
9485;SDS011;4781;48.776;9.200;2024-01-30T02:23:01;5.90;;;2.67;;
9485;SDS011;4781;48.776;9.200;2024-01-30T02:25:32;4.17;;;2.40;;
9485;SDS011;4781;48.776;9.200;2024-01-30T02:28:03;4.37;;;2.27;;
9485;SDS011;4781;48.776;9.200;2024-01-30T02:30:32;5.22;;;1.98;;
9485;SDS011;4781;48.776;9.200;2024-01-30T02:33:00;4.17;;;2.30;;
9485;SDS011;4781;48.776;9.200;2024-01-30T02:35:29;4.78;;;2.37;;
9485;SDS011;4781;48.776;9.200;2024-01-30T02:37:57;3.98;;;2.42;;
9485;SDS011;4781;48.776;9.200;2024-01-30T02:40:26;4.30;;;2.22;;
9485;SDS011;4781;48.776;9.200;2024-01-30T02:42:54;4.47;;;2.30;;
9485;SDS011;4781;48.776;9.200;2024-01-30T02:45:23;5.22;;;2.45;;
9485;SDS011;4781;48.776;9.200;2024-01-30T02:47:51;4.70;;;2.58;;
9485;SDS011;4781;48.776;9.200;2024-01-30T02:50:20;3.42;;;1.90;;
9485;SDS011;4781;48.776;9.200;2024-01-30T02:52:48;4.83;;;2.47;;
9485;SDS011;4781;48.776;9.200;2024-01-30T02:55:16;5.78;;;2.47;;
9485;SDS011;4781;48.776;9.200;2024-01-30T02:57:45;5.25;;;2.33;;
9485;SDS011;4781;48.776;9.200;2024-01-30T03:00:14;7.07;;;2.30;;
9485;SDS011;4781;48.776;9.200;2024-01-30T03:02:42;5.28;;;2.85;;
9485;SDS011;4781;48.776;9.200;2024-01-30T03:05:11;6.92;;;3.30;;
9485;SDS011;4781;48.776;9.200;2024-01-30T03:07:39;6.10;;;2.60;;
9485;SDS011;4781;48.776;9.200;2024-01-30T03:10:07;4.28;;;2.47;;
9485;SDS011;4781;48.776;9.200;2024-01-30T03:12:36;6.03;;;2.37;;
9485;SDS011;4781;48.776;9.200;2024-01-30T03:15:04;5.08;;;2.75;;
9485;SDS011;4781;48.776;9.200;2024-01-30T03:17:33;5.67;;;2.47;;
9485;SDS011;4781;48.776;9.200;2024-01-30T03:20:03;5.42;;;2.58;;
9485;SDS011;4781;48.776;9.200;2024-01-30T03:22:32;5.12;;;2.70;;
9485;SDS011;4781;48.776;9.200;2024-01-30T03:25:00;4.42;;;2.70;;
9485;SDS011;4781;48.776;9.200;2024-01-30T03:27:29;4.65;;;2.60;;
9485;SDS011;4781;48.776;9.200;2024-01-30T03:29:57;5.53;;;2.30;;
9485;SDS011;4781;48.776;9.200;2024-01-30T03:32:26;8.48;;;3.27;;
9485;SDS011;4781;48.776;9.200;2024-01-30T03:34:54;6.08;;;3.17;;
9485;SDS011;4781;48.776;9.200;2024-01-30T03:37:23;5.22;;;2.80;;
9485;SDS011;4781;48.776;9.200;2024-01-30T03:39:52;7.70;;;2.95;;
9485;SDS011;4781;48.776;9.200;2024-01-30T03:42:20;7.00;;;2.67;;
9485;SDS011;4781;48.776;9.200;2024-01-30T03:44:49;7.08;;;2.70;;
9485;SDS011;4781;48.776;9.200;2024-01-30T03:47:21;4.90;;;2.60;;
9485;SDS011;4781;48.776;9.200;2024-01-30T03:49:49;3.95;;;2.37;;
9485;SDS011;4781;48.776;9.200;2024-01-30T03:52:17;4.17;;;2.22;;
9485;SDS011;4781;48.776;9.200;2024-01-30T03:54:46;3.80;;;2.22;;
9485;SDS011;4781;48.776;9.200;2024-01-30T03:57:14;4.55;;;2.45;;
9485;SDS011;4781;48.776;9.200;2024-01-30T03:59:42;7.47;;;2.70;;
9485;SDS011;4781;48.776;9.200;2024-01-30T04:02:11;4.22;;;2.10;;
9485;SDS011;4781;48.776;9.200;2024-01-30T04:04:39;5.80;;;2.25;;
9485;SDS011;4781;48.776;9.200;2024-01-30T04:07:07;4.25;;;2.20;;
9485;SDS011;4781;48.776;9.200;2024-01-30T04:09:36;5.30;;;2.50;;
9485;SDS011;4781;48.776;9.200;2024-01-30T04:12:06;4.58;;;2.30;;
9485;SDS011;4781;48.776;9.200;2024-01-30T04:14:34;3.92;;;2.02;;
9485;SDS011;4781;48.776;9.200;2024-01-30T04:17:04;6.37;;;2.37;;
9485;SDS011;4781;48.776;9.200;2024-01-30T04:19:33;6.00;;;2.72;;
9485;SDS011;4781;48.776;9.200;2024-01-30T04:22:05;5.10;;;2.60;;
9485;SDS011;4781;48.776;9.200;2024-01-30T04:24:33;4.90;;;2.40;;
9485;SDS011;4781;48.776;9.200;2024-01-30T04:27:01;5.30;;;2.27;;
9485;SDS011;4781;48.776;9.200;2024-01-30T04:29:30;5.00;;;2.47;;
9485;SDS011;4781;48.776;9.200;2024-01-30T04:31:59;4.70;;;2.27;;
9485;SDS011;4781;48.776;9.200;2024-01-30T04:34:27;5.08;;;2.50;;
9485;SDS011;4781;48.776;9.200;2024-01-30T04:36:56;5.47;;;2.62;;
9485;SDS011;4781;48.776;9.200;2024-01-30T04:39:24;5.75;;;2.80;;
9485;SDS011;4781;48.776;9.200;2024-01-30T04:41:53;3.87;;;2.25;;
9485;SDS011;4781;48.776;9.200;2024-01-30T04:44:21;5.42;;;2.72;;
9485;SDS011;4781;48.776;9.200;2024-01-30T04:46:50;6.08;;;2.72;;
9485;SDS011;4781;48.776;9.200;2024-01-30T04:49:18;5.03;;;2.47;;
9485;SDS011;4781;48.776;9.200;2024-01-30T04:51:46;6.33;;;2.50;;
9485;SDS011;4781;48.776;9.200;2024-01-30T04:54:15;6.33;;;2.37;;
9485;SDS011;4781;48.776;9.200;2024-01-30T04:56:43;5.12;;;2.37;;
9485;SDS011;4781;48.776;9.200;2024-01-30T04:59:12;4.78;;;2.40;;
9485;SDS011;4781;48.776;9.200;2024-01-30T05:01:40;5.08;;;2.58;;
9485;SDS011;4781;48.776;9.200;2024-01-30T05:04:08;4.35;;;2.30;;
9485;SDS011;4781;48.776;9.200;2024-01-30T05:06:37;5.37;;;2.50;;
9485;SDS011;4781;48.776;9.200;2024-01-30T05:09:05;4.37;;;2.42;;
9485;SDS011;4781;48.776;9.200;2024-01-30T05:11:38;4.45;;;2.15;;
9485;SDS011;4781;48.776;9.200;2024-01-30T05:14:07;5.50;;;2.05;;
9485;SDS011;4781;48.776;9.200;2024-01-30T05:16:36;5.10;;;2.42;;
9485;SDS011;4781;48.776;9.200;2024-01-30T05:19:05;7.25;;;2.45;;
9485;SDS011;4781;48.776;9.200;2024-01-30T05:21:33;6.58;;;2.50;;
9485;SDS011;4781;48.776;9.200;2024-01-30T05:24:02;6.05;;;2.42;;
9485;SDS011;4781;48.776;9.200;2024-01-30T05:26:30;4.10;;;2.08;;
9485;SDS011;4781;48.776;9.200;2024-01-30T05:28:58;5.65;;;2.80;;
9485;SDS011;4781;48.776;9.200;2024-01-30T05:31:27;4.65;;;2.42;;
9485;SDS011;4781;48.776;9.200;2024-01-30T05:33:55;5.70;;;2.72;;
9485;SDS011;4781;48.776;9.200;2024-01-30T05:36:24;5.47;;;2.60;;
9485;SDS011;4781;48.776;9.200;2024-01-30T05:38:52;5.30;;;2.50;;
9485;SDS011;4781;48.776;9.200;2024-01-30T05:41:20;4.75;;;2.83;;
9485;SDS011;4781;48.776;9.200;2024-01-30T05:43:49;6.65;;;2.83;;
9485;SDS011;4781;48.776;9.200;2024-01-30T05:46:17;6.15;;;3.12;;
9485;SDS011;4781;48.776;9.200;2024-01-30T05:48:46;9.53;;;3.17;;
9485;SDS011;4781;48.776;9.200;2024-01-30T05:51:14;4.78;;;2.50;;
9485;SDS011;4781;48.776;9.200;2024-01-30T05:53:42;5.17;;;2.37;;
9485;SDS011;4781;48.776;9.200;2024-01-30T05:56:11;5.05;;;2.72;;
9485;SDS011;4781;48.776;9.200;2024-01-30T05:58:39;4.55;;;2.65;;
9485;SDS011;4781;48.776;9.200;2024-01-30T06:01:09;8.43;;;3.50;;
9485;SDS011;4781;48.776;9.200;2024-01-30T06:03:37;4.58;;;2.60;;
9485;SDS011;4781;48.776;9.200;2024-01-30T06:06:06;4.00;;;2.58;;
9485;SDS011;4781;48.776;9.200;2024-01-30T06:08:34;7.62;;;2.95;;
9485;SDS011;4781;48.776;9.200;2024-01-30T06:11:03;7.25;;;3.20;;
9485;SDS011;4781;48.776;9.200;2024-01-30T06:13:31;5.75;;;2.80;;
9485;SDS011;4781;48.776;9.200;2024-01-30T06:15:59;5.50;;;3.05;;
9485;SDS011;4781;48.776;9.200;2024-01-30T06:18:28;6.65;;;2.95;;
9485;SDS011;4781;48.776;9.200;2024-01-30T06:20:57;6.72;;;3.20;;
9485;SDS011;4781;48.776;9.200;2024-01-30T06:23:25;8.58;;;3.05;;
9485;SDS011;4781;48.776;9.200;2024-01-30T06:25:53;6.78;;;2.90;;
9485;SDS011;4781;48.776;9.200;2024-01-30T06:28:22;6.72;;;2.80;;
9485;SDS011;4781;48.776;9.200;2024-01-30T06:30:50;4.43;;;2.67;;
9485;SDS011;4781;48.776;9.200;2024-01-30T06:33:19;4.78;;;2.58;;
9485;SDS011;4781;48.776;9.200;2024-01-30T06:35:47;6.40;;;3.08;;
9485;SDS011;4781;48.776;9.200;2024-01-30T06:38:15;7.90;;;3.10;;
9485;SDS011;4781;48.776;9.200;2024-01-30T06:40:44;6.92;;;3.42;;
9485;SDS011;4781;48.776;9.200;2024-01-30T06:43:12;7.20;;;3.20;;
9485;SDS011;4781;48.776;9.200;2024-01-30T06:45:41;5.50;;;2.60;;
9485;SDS011;4781;48.776;9.200;2024-01-30T06:48:11;6.03;;;2.90;;
9485;SDS011;4781;48.776;9.200;2024-01-30T06:50:39;6.45;;;3.10;;
9485;SDS011;4781;48.776;9.200;2024-01-30T06:53:07;5.62;;;2.75;;
9485;SDS011;4781;48.776;9.200;2024-01-30T06:55:36;5.42;;;2.85;;
9485;SDS011;4781;48.776;9.200;2024-01-30T06:58:04;7.65;;;3.08;;
9485;SDS011;4781;48.776;9.200;2024-01-30T07:00:32;7.65;;;2.95;;
9485;SDS011;4781;48.776;9.200;2024-01-30T07:03:02;4.83;;;2.83;;
9485;SDS011;4781;48.776;9.200;2024-01-30T07:05:31;5.50;;;2.60;;
9485;SDS011;4781;48.776;9.200;2024-01-30T07:08:00;7.72;;;2.90;;
9485;SDS011;4781;48.776;9.200;2024-01-30T07:10:28;7.20;;;3.15;;
9485;SDS011;4781;48.776;9.200;2024-01-30T07:12:57;5.70;;;2.85;;
9485;SDS011;4781;48.776;9.200;2024-01-30T07:15:27;6.22;;;2.87;;
9485;SDS011;4781;48.776;9.200;2024-01-30T07:17:55;4.58;;;2.45;;
9485;SDS011;4781;48.776;9.200;2024-01-30T07:20:23;5.15;;;3.15;;
9485;SDS011;4781;48.776;9.200;2024-01-30T07:22:52;4.83;;;2.33;;
9485;SDS011;4781;48.776;9.200;2024-01-30T07:25:20;5.87;;;2.55;;
9485;SDS011;4781;48.776;9.200;2024-01-30T07:27:50;4.90;;;2.40;;
9485;SDS011;4781;48.776;9.200;2024-01-30T07:30:20;6.33;;;2.40;;
9485;SDS011;4781;48.776;9.200;2024-01-30T07:32:49;5.55;;;2.60;;
9485;SDS011;4781;48.776;9.200;2024-01-30T07:35:17;5.58;;;2.90;;
9485;SDS011;4781;48.776;9.200;2024-01-30T07:37:46;7.35;;;3.10;;
9485;SDS011;4781;48.776;9.200;2024-01-30T07:40:14;5.50;;;2.75;;
9485;SDS011;4781;48.776;9.200;2024-01-30T07:42:43;6.22;;;2.83;;
9485;SDS011;4781;48.776;9.200;2024-01-30T07:45:12;6.47;;;3.05;;
9485;SDS011;4781;48.776;9.200;2024-01-30T07:47:40;4.78;;;3.10;;
9485;SDS011;4781;48.776;9.200;2024-01-30T07:50:08;5.75;;;2.70;;
9485;SDS011;4781;48.776;9.200;2024-01-30T07:52:37;5.17;;;2.50;;
9485;SDS011;4781;48.776;9.200;2024-01-30T07:55:05;7.97;;;3.40;;
9485;SDS011;4781;48.776;9.200;2024-01-30T07:57:34;6.15;;;3.70;;
9485;SDS011;4781;48.776;9.200;2024-01-30T08:00:04;6.22;;;3.00;;
9485;SDS011;4781;48.776;9.200;2024-01-30T08:02:34;6.17;;;3.15;;
9485;SDS011;4781;48.776;9.200;2024-01-30T08:05:02;5.87;;;2.52;;
9485;SDS011;4781;48.776;9.200;2024-01-30T08:07:31;6.75;;;2.80;;
9485;SDS011;4781;48.776;9.200;2024-01-30T08:09:59;3.90;;;2.45;;
9485;SDS011;4781;48.776;9.200;2024-01-30T08:12:28;4.20;;;2.20;;
9485;SDS011;4781;48.776;9.200;2024-01-30T08:14:56;5.25;;;2.83;;
9485;SDS011;4781;48.776;9.200;2024-01-30T08:17:24;5.42;;;3.25;;
9485;SDS011;4781;48.776;9.200;2024-01-30T08:19:53;7.17;;;3.33;;
9485;SDS011;4781;48.776;9.200;2024-01-30T08:22:21;4.08;;;2.35;;
9485;SDS011;4781;48.776;9.200;2024-01-30T08:24:49;5.72;;;3.15;;
9485;SDS011;4781;48.776;9.200;2024-01-30T08:27:18;4.65;;;2.45;;
9485;SDS011;4781;48.776;9.200;2024-01-30T08:29:46;7.22;;;3.27;;
9485;SDS011;4781;48.776;9.200;2024-01-30T08:32:16;6.60;;;2.72;;
9485;SDS011;4781;48.776;9.200;2024-01-30T08:34:44;6.17;;;2.80;;
9485;SDS011;4781;48.776;9.200;2024-01-30T08:37:12;7.05;;;2.90;;
9485;SDS011;4781;48.776;9.200;2024-01-30T08:39:43;5.33;;;2.95;;
9485;SDS011;4781;48.776;9.200;2024-01-30T08:42:11;4.90;;;2.62;;
9485;SDS011;4781;48.776;9.200;2024-01-30T08:44:39;5.78;;;3.05;;
9485;SDS011;4781;48.776;9.200;2024-01-30T08:47:08;5.67;;;3.05;;
9485;SDS011;4781;48.776;9.200;2024-01-30T08:49:36;8.13;;;3.37;;
9485;SDS011;4781;48.776;9.200;2024-01-30T08:52:05;8.25;;;3.20;;
9485;SDS011;4781;48.776;9.200;2024-01-30T08:54:33;9.00;;;4.47;;
9485;SDS011;4781;48.776;9.200;2024-01-30T08:57:01;8.30;;;3.77;;
9485;SDS011;4781;48.776;9.200;2024-01-30T08:59:30;8.90;;;4.15;;
9485;SDS011;4781;48.776;9.200;2024-01-30T09:01:59;9.18;;;4.47;;
9485;SDS011;4781;48.776;9.200;2024-01-30T09:04:28;8.35;;;3.98;;
9485;SDS011;4781;48.776;9.200;2024-01-30T09:06:56;9.43;;;5.03;;
9485;SDS011;4781;48.776;9.200;2024-01-30T09:09:25;8.38;;;4.83;;
9485;SDS011;4781;48.776;9.200;2024-01-30T09:11:53;8.88;;;4.85;;
9485;SDS011;4781;48.776;9.200;2024-01-30T09:14:21;8.30;;;4.55;;
9485;SDS011;4781;48.776;9.200;2024-01-30T09:16:50;12.55;;;4.87;;
9485;SDS011;4781;48.776;9.200;2024-01-30T09:19:18;7.05;;;4.15;;
9485;SDS011;4781;48.776;9.200;2024-01-30T09:21:46;8.20;;;5.10;;
9485;SDS011;4781;48.776;9.200;2024-01-30T09:24:15;7.47;;;4.53;;
9485;SDS011;4781;48.776;9.200;2024-01-30T09:26:43;8.45;;;4.03;;
9485;SDS011;4781;48.776;9.200;2024-01-30T09:29:12;12.07;;;4.95;;
9485;SDS011;4781;48.776;9.200;2024-01-30T09:31:42;7.55;;;3.98;;
9485;SDS011;4781;48.776;9.200;2024-01-30T09:34:13;8.35;;;4.90;;
9485;SDS011;4781;48.776;9.200;2024-01-30T09:36:42;6.97;;;4.20;;
9485;SDS011;4781;48.776;9.200;2024-01-30T09:39:10;6.50;;;4.00;;
9485;SDS011;4781;48.776;9.200;2024-01-30T09:41:53;8.10;;;4.37;;
9485;SDS011;4781;48.776;9.200;2024-01-30T09:44:32;8.33;;;3.85;;
9485;SDS011;4781;48.776;9.200;2024-01-30T09:47:02;10.85;;;4.20;;
9485;SDS011;4781;48.776;9.200;2024-01-30T09:49:32;7.28;;;3.98;;
9485;SDS011;4781;48.776;9.200;2024-01-30T09:52:05;7.15;;;3.72;;
9485;SDS011;4781;48.776;9.200;2024-01-30T09:54:34;11.18;;;4.50;;
9485;SDS011;4781;48.776;9.200;2024-01-30T09:57:03;8.00;;;4.55;;
9485;SDS011;4781;48.776;9.200;2024-01-30T09:59:32;7.53;;;4.45;;
9485;SDS011;4781;48.776;9.200;2024-01-30T10:02:01;6.95;;;4.20;;
9485;SDS011;4781;48.776;9.200;2024-01-30T10:04:30;9.00;;;4.70;;
9485;SDS011;4781;48.776;9.200;2024-01-30T10:07:01;9.40;;;4.65;;
9485;SDS011;4781;48.776;9.200;2024-01-30T10:09:32;9.38;;;4.87;;
9485;SDS011;4781;48.776;9.200;2024-01-30T10:12:01;9.25;;;4.58;;
9485;SDS011;4781;48.776;9.200;2024-01-30T10:14:30;9.03;;;4.33;;
9485;SDS011;4781;48.776;9.200;2024-01-30T10:16:58;10.63;;;4.53;;
9485;SDS011;4781;48.776;9.200;2024-01-30T10:19:28;7.97;;;4.28;;
9485;SDS011;4781;48.776;9.200;2024-01-30T10:21:57;9.23;;;4.58;;
9485;SDS011;4781;48.776;9.200;2024-01-30T10:24:27;8.63;;;4.85;;
9485;SDS011;4781;48.776;9.200;2024-01-30T10:26:56;9.15;;;5.17;;
9485;SDS011;4781;48.776;9.200;2024-01-30T10:29:24;7.72;;;4.65;;
9485;SDS011;4781;48.776;9.200;2024-01-30T10:32:03;9.00;;;5.50;;
9485;SDS011;4781;48.776;9.200;2024-01-30T10:34:33;10.08;;;5.97;;
9485;SDS011;4781;48.776;9.200;2024-01-30T10:37:09;10.13;;;4.80;;
9485;SDS011;4781;48.776;9.200;2024-01-30T10:39:44;10.28;;;5.60;;
9485;SDS011;4781;48.776;9.200;2024-01-30T10:42:14;12.50;;;5.08;;
9485;SDS011;4781;48.776;9.200;2024-01-30T10:47:38;7.20;;;4.33;;
9485;SDS011;4781;48.776;9.200;2024-01-30T10:50:10;12.60;;;5.37;;
9485;SDS011;4781;48.776;9.200;2024-01-30T10:52:39;9.05;;;4.65;;
9485;SDS011;4781;48.776;9.200;2024-01-30T10:55:09;10.80;;;4.53;;
9485;SDS011;4781;48.776;9.200;2024-01-30T10:57:39;11.30;;;5.12;;
9485;SDS011;4781;48.776;9.200;2024-01-30T11:00:08;11.25;;;5.83;;
9485;SDS011;4781;48.776;9.200;2024-01-30T11:02:44;7.90;;;4.55;;
9485;SDS011;4781;48.776;9.200;2024-01-30T11:05:12;9.45;;;4.72;;
9485;SDS011;4781;48.776;9.200;2024-01-30T11:07:41;12.37;;;5.08;;
9485;SDS011;4781;48.776;9.200;2024-01-30T11:10:11;10.13;;;5.25;;
9485;SDS011;4781;48.776;9.200;2024-01-30T11:12:41;7.33;;;4.83;;
9485;SDS011;4781;48.776;9.200;2024-01-30T11:15:16;8.90;;;4.62;;
9485;SDS011;4781;48.776;9.200;2024-01-30T11:20:22;8.85;;;4.62;;
9485;SDS011;4781;48.776;9.200;2024-01-30T11:22:59;10.08;;;5.30;;
9485;SDS011;4781;48.776;9.200;2024-01-30T11:25:29;9.20;;;4.67;;
9485;SDS011;4781;48.776;9.200;2024-01-30T11:27:59;9.05;;;5.05;;
9485;SDS011;4781;48.776;9.200;2024-01-30T11:30:28;13.45;;;5.08;;
9485;SDS011;4781;48.776;9.200;2024-01-30T11:33:00;8.80;;;4.83;;
9485;SDS011;4781;48.776;9.200;2024-01-30T11:35:39;8.55;;;4.87;;
9485;SDS011;4781;48.776;9.200;2024-01-30T11:38:10;13.15;;;4.62;;
9485;SDS011;4781;48.776;9.200;2024-01-30T11:40:41;10.08;;;5.35;;
9485;SDS011;4781;48.776;9.200;2024-01-30T11:43:11;7.83;;;4.35;;
9485;SDS011;4781;48.776;9.200;2024-01-30T11:45:39;10.03;;;5.17;;
9485;SDS011;4781;48.776;9.200;2024-01-30T11:48:09;8.33;;;5.15;;
9485;SDS011;4781;48.776;9.200;2024-01-30T11:50:39;9.65;;;4.87;;
9485;SDS011;4781;48.776;9.200;2024-01-30T11:53:08;9.38;;;5.40;;
9485;SDS011;4781;48.776;9.200;2024-01-30T11:55:37;9.23;;;5.53;;
9485;SDS011;4781;48.776;9.200;2024-01-30T11:58:05;8.60;;;4.90;;
9485;SDS011;4781;48.776;9.200;2024-01-30T12:00:34;10.03;;;5.42;;
9485;SDS011;4781;48.776;9.200;2024-01-30T12:03:02;8.85;;;4.95;;
9485;SDS011;4781;48.776;9.200;2024-01-30T12:05:32;9.18;;;4.95;;
9485;SDS011;4781;48.776;9.200;2024-01-30T12:08:02;10.08;;;5.35;;
9485;SDS011;4781;48.776;9.200;2024-01-30T12:10:30;10.40;;;5.80;;
9485;SDS011;4781;48.776;9.200;2024-01-30T12:12:59;11.60;;;5.47;;
9485;SDS011;4781;48.776;9.200;2024-01-30T12:15:28;10.35;;;5.22;;
9485;SDS011;4781;48.776;9.200;2024-01-30T12:18:04;8.58;;;4.80;;
9485;SDS011;4781;48.776;9.200;2024-01-30T12:20:33;10.63;;;5.35;;
9485;SDS011;4781;48.776;9.200;2024-01-30T12:23:02;10.65;;;5.55;;
9485;SDS011;4781;48.776;9.200;2024-01-30T12:25:30;11.60;;;6.58;;
9485;SDS011;4781;48.776;9.200;2024-01-30T12:27:59;11.00;;;4.87;;
9485;SDS011;4781;48.776;9.200;2024-01-30T12:30:27;9.83;;;5.07;;
9485;SDS011;4781;48.776;9.200;2024-01-30T12:32:56;9.78;;;4.95;;
9485;SDS011;4781;48.776;9.200;2024-01-30T12:35:25;10.75;;;5.62;;
9485;SDS011;4781;48.776;9.200;2024-01-30T12:37:53;11.50;;;6.03;;
9485;SDS011;4781;48.776;9.200;2024-01-30T12:40:22;8.30;;;4.83;;
9485;SDS011;4781;48.776;9.200;2024-01-30T12:42:52;8.75;;;4.78;;
9485;SDS011;4781;48.776;9.200;2024-01-30T12:45:20;8.80;;;4.80;;
9485;SDS011;4781;48.776;9.200;2024-01-30T12:47:49;9.65;;;4.53;;
9485;SDS011;4781;48.776;9.200;2024-01-30T12:50:18;8.88;;;5.08;;
9485;SDS011;4781;48.776;9.200;2024-01-30T12:52:46;10.88;;;4.47;;
9485;SDS011;4781;48.776;9.200;2024-01-30T12:55:14;8.45;;;5.17;;
9485;SDS011;4781;48.776;9.200;2024-01-30T12:57:43;8.38;;;4.85;;
9485;SDS011;4781;48.776;9.200;2024-01-30T13:00:11;10.03;;;4.40;;
9485;SDS011;4781;48.776;9.200;2024-01-30T13:02:42;10.78;;;4.83;;
9485;SDS011;4781;48.776;9.200;2024-01-30T13:05:10;9.35;;;4.50;;
9485;SDS011;4781;48.776;9.200;2024-01-30T13:07:39;15.45;;;4.87;;
9485;SDS011;4781;48.776;9.200;2024-01-30T13:10:07;8.13;;;4.28;;
9485;SDS011;4781;48.776;9.200;2024-01-30T13:12:36;10.48;;;5.40;;
9485;SDS011;4781;48.776;9.200;2024-01-30T13:15:05;11.18;;;5.08;;
9485;SDS011;4781;48.776;9.200;2024-01-30T13:17:33;7.55;;;3.62;;
9485;SDS011;4781;48.776;9.200;2024-01-30T13:20:02;7.78;;;4.08;;
9485;SDS011;4781;48.776;9.200;2024-01-30T13:22:31;7.12;;;4.35;;
9485;SDS011;4781;48.776;9.200;2024-01-30T13:24:59;10.13;;;4.80;;
9485;SDS011;4781;48.776;9.200;2024-01-30T13:27:27;10.93;;;4.35;;
9485;SDS011;4781;48.776;9.200;2024-01-30T13:29:56;8.18;;;4.97;;
9485;SDS011;4781;48.776;9.200;2024-01-30T13:32:24;9.03;;;4.72;;
9485;SDS011;4781;48.776;9.200;2024-01-30T13:34:53;8.00;;;3.90;;
9485;SDS011;4781;48.776;9.200;2024-01-30T13:37:22;8.40;;;4.20;;
9485;SDS011;4781;48.776;9.200;2024-01-30T13:39:50;9.13;;;4.12;;
9485;SDS011;4781;48.776;9.200;2024-01-30T13:42:19;8.58;;;4.22;;
9485;SDS011;4781;48.776;9.200;2024-01-30T13:44:47;8.75;;;4.50;;
9485;SDS011;4781;48.776;9.200;2024-01-30T13:47:16;10.90;;;4.33;;
9485;SDS011;4781;48.776;9.200;2024-01-30T13:49:46;10.72;;;4.78;;
9485;SDS011;4781;48.776;9.200;2024-01-30T13:52:14;7.87;;;4.30;;
9485;SDS011;4781;48.776;9.200;2024-01-30T13:54:43;9.45;;;4.33;;
9485;SDS011;4781;48.776;9.200;2024-01-30T13:57:11;11.55;;;4.70;;
9485;SDS011;4781;48.776;9.200;2024-01-30T13:59:40;11.20;;;4.85;;
9485;SDS011;4781;48.776;9.200;2024-01-30T14:02:09;8.83;;;4.53;;
9485;SDS011;4781;48.776;9.200;2024-01-30T14:04:37;9.45;;;4.67;;
9485;SDS011;4781;48.776;9.200;2024-01-30T14:07:06;8.88;;;4.25;;
9485;SDS011;4781;48.776;9.200;2024-01-30T14:09:34;8.93;;;4.28;;
9485;SDS011;4781;48.776;9.200;2024-01-30T14:12:03;7.50;;;4.67;;
9485;SDS011;4781;48.776;9.200;2024-01-30T14:14:31;9.80;;;4.40;;
9485;SDS011;4781;48.776;9.200;2024-01-30T14:17:00;9.38;;;4.45;;
9485;SDS011;4781;48.776;9.200;2024-01-30T14:19:32;10.32;;;4.40;;
9485;SDS011;4781;48.776;9.200;2024-01-30T14:22:01;9.98;;;4.90;;
9485;SDS011;4781;48.776;9.200;2024-01-30T14:24:30;9.28;;;5.22;;
9485;SDS011;4781;48.776;9.200;2024-01-30T14:26:58;9.20;;;4.17;;
9485;SDS011;4781;48.776;9.200;2024-01-30T14:29:27;9.68;;;4.53;;
9485;SDS011;4781;48.776;9.200;2024-01-30T14:31:55;8.45;;;4.22;;
9485;SDS011;4781;48.776;9.200;2024-01-30T14:34:24;10.30;;;5.00;;
9485;SDS011;4781;48.776;9.200;2024-01-30T14:36:53;7.60;;;4.22;;
9485;SDS011;4781;48.776;9.200;2024-01-30T14:39:21;10.25;;;4.70;;
9485;SDS011;4781;48.776;9.200;2024-01-30T14:41:50;9.00;;;4.60;;
9485;SDS011;4781;48.776;9.200;2024-01-30T14:44:18;9.33;;;4.03;;
9485;SDS011;4781;48.776;9.200;2024-01-30T14:46:46;9.40;;;4.12;;
9485;SDS011;4781;48.776;9.200;2024-01-30T14:49:15;8.33;;;3.90;;
9485;SDS011;4781;48.776;9.200;2024-01-30T14:51:43;7.65;;;4.40;;
9485;SDS011;4781;48.776;9.200;2024-01-30T14:54:12;8.25;;;3.70;;
9485;SDS011;4781;48.776;9.200;2024-01-30T14:56:41;10.60;;;4.15;;
9485;SDS011;4781;48.776;9.200;2024-01-30T14:59:09;15.25;;;4.58;;
9485;SDS011;4781;48.776;9.200;2024-01-30T15:01:38;13.55;;;4.95;;
9485;SDS011;4781;48.776;9.200;2024-01-30T15:04:06;11.70;;;4.67;;
9485;SDS011;4781;48.776;9.200;2024-01-30T15:06:34;9.53;;;4.50;;
9485;SDS011;4781;48.776;9.200;2024-01-30T15:09:03;8.98;;;4.12;;
9485;SDS011;4781;48.776;9.200;2024-01-30T15:11:32;9.53;;;4.42;;
9485;SDS011;4781;48.776;9.200;2024-01-30T15:14:01;9.83;;;3.98;;
9485;SDS011;4781;48.776;9.200;2024-01-30T15:16:29;11.22;;;5.37;;
9485;SDS011;4781;48.776;9.200;2024-01-30T15:18:58;9.00;;;4.30;;
9485;SDS011;4781;48.776;9.200;2024-01-30T15:21:26;10.25;;;4.72;;
9485;SDS011;4781;48.776;9.200;2024-01-30T15:23:55;9.00;;;4.65;;
9485;SDS011;4781;48.776;9.200;2024-01-30T15:26:23;12.43;;;4.85;;
9485;SDS011;4781;48.776;9.200;2024-01-30T15:28:52;10.38;;;4.92;;